CA-0682 weather

Brechin / Skywagon City Airfield
Brechin, Ontario, Canada

Public forecast

Using degrees Celsius for public forecast. Weather courtesy of forecast.io.

Closest aviation weather report (METAR) to Brechin / Skywagon City Airfield

Closest report is Muskoka Airport, 24.5 nm (45.3 km) N. Retrieved 2019/10/14 14:00 UTC (9 minutes ago):

CYQA 141400Z AUTO 20009KT 9SM BKN080 07/02 A2986 RMK SLP120

Closest aviation forecast (TAF) to Brechin / Skywagon City Airfield

Closest forecast is Muskoka Airport, 24.5 nm (45.3 km) N. Retrieved 2019/10/14 14:42 UTC (0 seconds ago):

TAF CYQA 141339Z 1414/1502 23007KT P6SM FEW030 SCT080 TEMPO 1414/1416 P6SM -SHRA OVC020 FM141600 24012G22KT P6SM BKN030 TEMPO 1416/1502 P6SM -SHRA BECMG 1423/1501 24008KT RMK FCST BASED ON AUTO OBS NXT FCST BY 142000Z